sensor_id;sensor_type;location;lat;lon;timestamp;pressure;altitude;pressure_sealevel;temperature;humidity
52777;BME280;38656;54.260;20.822;2023-02-28T00:00:34;102546.25;;;12.88;33.02
52777;BME280;38656;54.260;20.822;2023-02-28T00:03:01;102543.00;;;12.67;33.00
52777;BME280;38656;54.260;20.822;2023-02-28T00:05:28;102544.56;;;12.71;33.65
52777;BME280;38656;54.260;20.822;2023-02-28T00:07:55;102547.28;;;12.69;33.73
52777;BME280;38656;54.260;20.822;2023-02-28T00:10:25;102553.53;;;12.68;33.50
52777;BME280;38656;54.260;20.822;2023-02-28T00:12:53;102552.56;;;12.85;32.91
52777;BME280;38656;54.260;20.822;2023-02-28T00:15:20;102555.13;;;12.39;34.48
52777;BME280;38656;54.260;20.822;2023-02-28T00:17:48;102547.97;;;12.73;33.40
52777;BME280;38656;54.260;20.822;2023-02-28T00:20:15;102550.88;;;12.84;33.22
52777;BME280;38656;54.260;20.822;2023-02-28T00:22:44;102552.00;;;12.80;32.81
52777;BME280;38656;54.260;20.822;2023-02-28T00:25:14;102544.00;;;12.64;33.26
52777;BME280;38656;54.260;20.822;2023-02-28T00:27:41;102557.34;;;12.63;33.47
52777;BME280;38656;54.260;20.822;2023-02-28T00:30:12;102559.41;;;12.89;32.81
52777;BME280;38656;54.260;20.822;2023-02-28T00:32:39;102562.75;;;12.77;33.10
52777;BME280;38656;54.260;20.822;2023-02-28T00:35:07;102569.28;;;12.87;32.89
52777;BME280;38656;54.260;20.822;2023-02-28T00:37:33;102555.59;;;12.30;33.13
52777;BME280;38656;54.260;20.822;2023-02-28T00:39:59;102559.94;;;12.80;32.77
52777;BME280;38656;54.260;20.822;2023-02-28T00:42:25;102560.34;;;12.56;32.43
52777;BME280;38656;54.260;20.822;2023-02-28T00:44:52;102558.25;;;12.30;33.13
52777;BME280;38656;54.260;20.822;2023-02-28T00:47:18;102554.75;;;11.96;34.34
52777;BME280;38656;54.260;20.822;2023-02-28T00:49:44;102561.22;;;12.24;34.04
52777;BME280;38656;54.260;20.822;2023-02-28T00:52:11;102554.88;;;12.60;33.22
52777;BME280;38656;54.260;20.822;2023-02-28T00:54:39;102560.53;;;12.69;32.75
52777;BME280;38656;54.260;20.822;2023-02-28T00:57:05;102564.50;;;12.45;33.09
52777;BME280;38656;54.260;20.822;2023-02-28T00:59:32;102570.00;;;12.57;32.59
52777;BME280;38656;54.260;20.822;2023-02-28T01:01:58;102567.97;;;12.47;32.74
52777;BME280;38656;54.260;20.822;2023-02-28T01:04:24;102569.47;;;12.35;34.02
52777;BME280;38656;54.260;20.822;2023-02-28T01:06:50;102569.13;;;12.41;33.42
52777;BME280;38656;54.260;20.822;2023-02-28T01:09:16;102575.94;;;12.29;33.59
52777;BME280;38656;54.260;20.822;2023-02-28T01:11:43;102580.56;;;12.26;33.68
52777;BME280;38656;54.260;20.822;2023-02-28T01:14:13;102567.16;;;12.29;33.60
52777;BME280;38656;54.260;20.822;2023-02-28T01:16:40;102566.09;;;11.98;33.84
52777;BME280;38656;54.260;20.822;2023-02-28T01:19:06;102567.94;;;12.13;33.70
52777;BME280;38656;54.260;20.822;2023-02-28T01:21:33;102559.25;;;12.61;33.28
52777;BME280;38656;54.260;20.822;2023-02-28T01:24:01;102558.28;;;12.46;33.17
52777;BME280;38656;54.260;20.822;2023-02-28T01:26:27;102559.75;;;12.51;33.81
52777;BME280;38656;54.260;20.822;2023-02-28T01:28:54;102554.97;;;12.74;33.40
52777;BME280;38656;54.260;20.822;2023-02-28T01:31:21;102556.56;;;12.29;33.70
52777;BME280;38656;54.260;20.822;2023-02-28T01:33:47;102550.44;;;12.11;34.49
52777;BME280;38656;54.260;20.822;2023-02-28T01:36:19;102553.44;;;12.70;34.23
52777;BME280;38656;54.260;20.822;2023-02-28T01:38:46;102551.94;;;11.99;35.58
52777;BME280;38656;54.260;20.822;2023-02-28T01:41:21;102556.09;;;10.60;38.09
52777;BME280;38656;54.260;20.822;2023-02-28T01:46:15;102552.31;;;12.42;35.79
52777;BME280;38656;54.260;20.822;2023-02-28T01:48:45;102552.72;;;11.83;36.76
52777;BME280;38656;54.260;20.822;2023-02-28T01:51:18;102551.09;;;12.32;35.86
52777;BME280;38656;54.260;20.822;2023-02-28T01:53:51;102548.41;;;11.28;37.10
52777;BME280;38656;54.260;20.822;2023-02-28T01:56:22;102551.44;;;10.65;39.01
52777;BME280;38656;54.260;20.822;2023-02-28T01:58:51;102545.41;;;12.87;35.20
52777;BME280;38656;54.260;20.822;2023-02-28T02:01:18;102526.91;;;13.02;34.22
52777;BME280;38656;54.260;20.822;2023-02-28T02:03:54;102536.84;;;12.66;34.38
52777;BME280;38656;54.260;20.822;2023-02-28T02:06:23;102545.56;;;12.68;34.93
52777;BME280;38656;54.260;20.822;2023-02-28T02:08:50;102551.72;;;12.53;34.26
52777;BME280;38656;54.260;20.822;2023-02-28T02:11:20;102546.59;;;12.66;34.26
52777;BME280;38656;54.260;20.822;2023-02-28T02:13:59;102536.69;;;12.69;34.51
52777;BME280;38656;54.260;20.822;2023-02-28T02:16:44;102548.19;;;12.03;34.00
52777;BME280;38656;54.260;20.822;2023-02-28T02:19:29;102547.06;;;12.25;34.54
52777;BME280;38656;54.260;20.822;2023-02-28T02:22:25;102555.75;;;12.27;34.83
52777;BME280;38656;54.260;20.822;2023-02-28T02:25:26;102558.13;;;12.15;34.23
52777;BME280;38656;54.260;20.822;2023-02-28T02:36:22;102555.56;;;12.14;34.15
52777;BME280;38656;54.260;20.822;2023-02-28T02:39:06;102552.91;;;12.47;34.22
52777;BME280;38656;54.260;20.822;2023-02-28T02:46:46;102560.25;;;8.99;42.38
52777;BME280;38656;54.260;20.822;2023-02-28T02:49:28;102561.84;;;9.68;40.49
52777;BME280;38656;54.260;20.822;2023-02-28T02:52:00;102555.53;;;10.90;38.90
52777;BME280;38656;54.260;20.822;2023-02-28T02:54:30;102559.97;;;9.70;41.15
52777;BME280;38656;54.260;20.822;2023-02-28T02:57:03;102562.22;;;10.79;40.51
52777;BME280;38656;54.260;20.822;2023-02-28T02:59:31;102560.00;;;12.13;36.61
52777;BME280;38656;54.260;20.822;2023-02-28T03:02:01;102562.53;;;10.34;39.08
52777;BME280;38656;54.260;20.822;2023-02-28T03:04:33;102562.88;;;10.05;39.82
52777;BME280;38656;54.260;20.822;2023-02-28T03:07:01;102565.16;;;11.46;37.64
52777;BME280;38656;54.260;20.822;2023-02-28T03:09:27;102556.69;;;9.86;40.08
52777;BME280;38656;54.260;20.822;2023-02-28T03:11:55;102560.00;;;9.28;41.36
52777;BME280;38656;54.260;20.822;2023-02-28T03:27:55;102563.69;;;13.08;35.30
52777;BME280;38656;54.260;20.822;2023-02-28T03:33:09;102562.94;;;12.74;34.65
52777;BME280;38656;54.260;20.822;2023-02-28T03:35:48;102561.94;;;10.27;38.47
52777;BME280;38656;54.260;20.822;2023-02-28T03:43:35;102569.00;;;12.76;34.41
52777;BME280;38656;54.260;20.822;2023-02-28T03:46:08;102574.28;;;12.76;33.51
52777;BME280;38656;54.260;20.822;2023-02-28T03:48:43;102566.97;;;12.81;33.21
52777;BME280;38656;54.260;20.822;2023-02-28T03:51:16;102567.78;;;13.14;33.55
52777;BME280;38656;54.260;20.822;2023-02-28T03:53:52;102573.84;;;9.11;40.12
52777;BME280;38656;54.260;20.822;2023-02-28T03:56:24;102571.88;;;7.97;44.60
52777;BME280;38656;54.260;20.822;2023-02-28T04:01:32;102567.94;;;10.31;39.66
52777;BME280;38656;54.260;20.822;2023-02-28T04:04:01;102566.41;;;12.43;35.26
52777;BME280;38656;54.260;20.822;2023-02-28T04:06:27;102566.44;;;9.20;41.14
52777;BME280;38656;54.260;20.822;2023-02-28T04:08:56;102561.94;;;10.27;39.36
52777;BME280;38656;54.260;20.822;2023-02-28T04:13:52;102564.72;;;12.89;34.72
52777;BME280;38656;54.260;20.822;2023-02-28T04:16:19;102559.50;;;13.04;34.54
52777;BME280;38656;54.260;20.822;2023-02-28T04:18:45;102562.16;;;13.04;34.41
52777;BME280;38656;54.260;20.822;2023-02-28T04:21:12;102559.31;;;12.75;34.40
52777;BME280;38656;54.260;20.822;2023-02-28T04:23:38;102561.94;;;11.92;36.43
52777;BME280;38656;54.260;20.822;2023-02-28T04:26:05;102566.75;;;9.35;39.90
52777;BME280;38656;54.260;20.822;2023-02-28T04:28:32;102563.97;;;10.98;38.74
52777;BME280;38656;54.260;20.822;2023-02-28T04:31:03;102563.72;;;12.92;35.02
52777;BME280;38656;54.260;20.822;2023-02-28T04:33:31;102557.34;;;12.95;34.06
52777;BME280;38656;54.260;20.822;2023-02-28T04:36:02;102563.00;;;12.88;34.66
52777;BME280;38656;54.260;20.822;2023-02-28T04:38:30;102567.63;;;13.01;33.78
52777;BME280;38656;54.260;20.822;2023-02-28T04:40:58;102568.03;;;13.09;33.71
52777;BME280;38656;54.260;20.822;2023-02-28T04:43:27;102567.28;;;12.75;33.92
52777;BME280;38656;54.260;20.822;2023-02-28T04:45:54;102564.91;;;12.86;33.72
52777;BME280;38656;54.260;20.822;2023-02-28T04:48:24;102564.53;;;12.77;33.32
52777;BME280;38656;54.260;20.822;2023-02-28T04:50:51;102575.03;;;12.13;34.43
52777;BME280;38656;54.260;20.822;2023-02-28T04:53:17;102579.59;;;12.60;33.50
52777;BME280;38656;54.260;20.822;2023-02-28T04:55:44;102579.56;;;12.44;34.05
52777;BME280;38656;54.260;20.822;2023-02-28T04:58:10;102573.38;;;12.77;33.59
52777;BME280;38656;54.260;20.822;2023-02-28T05:00:36;102582.06;;;13.11;33.55
52777;BME280;38656;54.260;20.822;2023-02-28T05:03:02;102587.16;;;10.14;39.11
52777;BME280;38656;54.260;20.822;2023-02-28T05:05:29;102583.75;;;11.80;36.81
52777;BME280;38656;54.260;20.822;2023-02-28T05:07:55;102590.91;;;8.55;41.88
52777;BME280;38656;54.260;20.822;2023-02-28T05:10:22;102583.31;;;8.47;42.77
52777;BME280;38656;54.260;20.822;2023-02-28T05:12:49;102587.06;;;7.89;45.33
52777;BME280;38656;54.260;20.822;2023-02-28T05:15:16;102576.59;;;8.62;46.06
52777;BME280;38656;54.260;20.822;2023-02-28T05:17:43;102582.31;;;9.62;42.52
52777;BME280;38656;54.260;20.822;2023-02-28T05:20:10;102573.53;;;11.55;40.02
52777;BME280;38656;54.260;20.822;2023-02-28T05:22:40;102576.41;;;9.34;42.80
52777;BME280;38656;54.260;20.822;2023-02-28T05:25:08;102570.28;;;11.49;39.88
52777;BME280;38656;54.260;20.822;2023-02-28T05:27:34;102573.44;;;11.21;40.37
52777;BME280;38656;54.260;20.822;2023-02-28T05:30:01;102573.25;;;12.95;37.24
52777;BME280;38656;54.260;20.822;2023-02-28T05:32:29;102578.41;;;11.99;37.95
52777;BME280;38656;54.260;20.822;2023-02-28T05:34:55;102577.03;;;12.59;37.72
52777;BME280;38656;54.260;20.822;2023-02-28T05:37:21;102577.47;;;14.34;35.27
52777;BME280;38656;54.260;20.822;2023-02-28T05:39:48;102584.88;;;11.22;38.61
52777;BME280;38656;54.260;20.822;2023-02-28T05:42:14;102575.88;;;9.69;41.80
52777;BME280;38656;54.260;20.822;2023-02-28T05:44:40;102575.16;;;9.65;42.94
52777;BME280;38656;54.260;20.822;2023-02-28T05:47:07;102565.56;;;8.52;45.29
52777;BME280;38656;54.260;20.822;2023-02-28T05:49:34;102570.72;;;8.30;47.27
52777;BME280;38656;54.260;20.822;2023-02-28T05:52:00;102565.16;;;7.89;48.15
52777;BME280;38656;54.260;20.822;2023-02-28T05:54:26;102566.84;;;7.11;50.04
52777;BME280;38656;54.260;20.822;2023-02-28T05:56:52;102568.84;;;8.08;48.12
52777;BME280;38656;54.260;20.822;2023-02-28T05:59:18;102574.38;;;6.94;50.79
52777;BME280;38656;54.260;20.822;2023-02-28T06:01:46;102566.88;;;6.81;50.65
52777;BME280;38656;54.260;20.822;2023-02-28T06:04:15;102568.41;;;10.59;43.23
52777;BME280;38656;54.260;20.822;2023-02-28T06:06:48;102556.97;;;8.47;46.76
52777;BME280;38656;54.260;20.822;2023-02-28T06:09:15;102555.09;;;8.96;45.85
52777;BME280;38656;54.260;20.822;2023-02-28T06:11:41;102556.47;;;9.27;45.58
52777;BME280;38656;54.260;20.822;2023-02-28T06:14:12;102563.63;;;7.56;48.38
52777;BME280;38656;54.260;20.822;2023-02-28T06:16:40;102561.53;;;9.33;46.59
52777;BME280;38656;54.260;20.822;2023-02-28T06:19:07;102563.53;;;9.49;45.79
52777;BME280;38656;54.260;20.822;2023-02-28T06:21:33;102561.72;;;9.71;44.55
52777;BME280;38656;54.260;20.822;2023-02-28T06:23:59;102559.03;;;10.13;43.55
52777;BME280;38656;54.260;20.822;2023-02-28T06:26:26;102566.53;;;10.03;43.56
52777;BME280;38656;54.260;20.822;2023-02-28T06:28:53;102561.31;;;9.81;45.83
52777;BME280;38656;54.260;20.822;2023-02-28T06:31:20;102569.53;;;8.39;47.65
52777;BME280;38656;54.260;20.822;2023-02-28T06:33:46;102555.53;;;8.62;46.98
52777;BME280;38656;54.260;20.822;2023-02-28T06:36:14;102560.97;;;10.87;44.67
52777;BME280;38656;54.260;20.822;2023-02-28T06:38:41;102560.91;;;10.10;45.07
52777;BME280;38656;54.260;20.822;2023-02-28T06:41:08;102555.06;;;12.23;40.33
52777;BME280;38656;54.260;20.822;2023-02-28T06:43:38;102559.13;;;11.97;40.80
52777;BME280;38656;54.260;20.822;2023-02-28T06:46:07;102561.63;;;10.92;43.34
52777;BME280;38656;54.260;20.822;2023-02-28T06:48:34;102562.19;;;11.35;44.07
52777;BME280;38656;54.260;20.822;2023-02-28T06:51:09;102558.00;;;9.96;45.68
52777;BME280;38656;54.260;20.822;2023-02-28T06:53:36;102563.94;;;10.01;45.48
52777;BME280;38656;54.260;20.822;2023-02-28T06:56:07;102565.94;;;10.75;45.43
52777;BME280;38656;54.260;20.822;2023-02-28T06:58:33;102566.94;;;9.51;46.55
52777;BME280;38656;54.260;20.822;2023-02-28T07:01:00;102560.41;;;10.61;45.51
52777;BME280;38656;54.260;20.822;2023-02-28T07:03:27;102570.50;;;8.36;48.02
52777;BME280;38656;54.260;20.822;2023-02-28T07:05:53;102559.00;;;9.94;47.41
52777;BME280;38656;54.260;20.822;2023-02-28T07:08:19;102553.41;;;11.52;44.89
52777;BME280;38656;54.260;20.822;2023-02-28T07:10:45;102563.59;;;11.25;44.88
52777;BME280;38656;54.260;20.822;2023-02-28T07:13:11;102562.03;;;10.05;46.38
52777;BME280;38656;54.260;20.822;2023-02-28T07:15:37;102563.50;;;10.31;47.31
52777;BME280;38656;54.260;20.822;2023-02-28T07:18:04;102565.47;;;11.75;44.83
52777;BME280;38656;54.260;20.822;2023-02-28T07:20:31;102568.41;;;9.99;47.12
52777;BME280;38656;54.260;20.822;2023-02-28T07:22:57;102566.81;;;10.16;46.30
52777;BME280;38656;54.260;20.822;2023-02-28T07:25:24;102569.44;;;9.97;47.29
52777;BME280;38656;54.260;20.822;2023-02-28T07:27:51;102565.09;;;11.11;45.59
52777;BME280;38656;54.260;20.822;2023-02-28T07:30:18;102567.09;;;9.89;47.80
52777;BME280;38656;54.260;20.822;2023-02-28T07:32:45;102567.06;;;10.89;46.57
52777;BME280;38656;54.260;20.822;2023-02-28T07:35:11;102561.63;;;10.92;46.51
52777;BME280;38656;54.260;20.822;2023-02-28T07:37:37;102567.56;;;11.51;46.09
52777;BME280;38656;54.260;20.822;2023-02-28T07:40:05;102571.88;;;10.61;45.65
52777;BME280;38656;54.260;20.822;2023-02-28T07:42:36;102575.06;;;10.28;47.01
52777;BME280;38656;54.260;20.822;2023-02-28T07:45:03;102570.91;;;11.01;46.08
52777;BME280;38656;54.260;20.822;2023-02-28T07:47:30;102559.34;;;13.53;42.28
52777;BME280;38656;54.260;20.822;2023-02-28T07:49:56;102562.69;;;11.96;43.32
52777;BME280;38656;54.260;20.822;2023-02-28T07:52:23;102563.72;;;12.27;42.84
52777;BME280;38656;54.260;20.822;2023-02-28T07:54:50;102557.06;;;11.84;44.11
52777;BME280;38656;54.260;20.822;2023-02-28T07:57:16;102552.69;;;11.31;44.38
52777;BME280;38656;54.260;20.822;2023-02-28T07:59:42;102549.88;;;11.51;45.71
52777;BME280;38656;54.260;20.822;2023-02-28T08:02:14;102543.47;;;12.26;43.36
52777;BME280;38656;54.260;20.822;2023-02-28T08:04:41;102550.34;;;12.93;42.98
52777;BME280;38656;54.260;20.822;2023-02-28T08:07:08;102555.94;;;11.19;44.55
52777;BME280;38656;54.260;20.822;2023-02-28T08:09:34;102550.31;;;13.25;41.05
52777;BME280;38656;54.260;20.822;2023-02-28T08:12:00;102554.00;;;12.27;43.11
52777;BME280;38656;54.260;20.822;2023-02-28T08:14:26;102553.47;;;11.68;43.12
52777;BME280;38656;54.260;20.822;2023-02-28T08:16:53;102544.22;;;13.70;41.98
52777;BME280;38656;54.260;20.822;2023-02-28T08:19:20;102546.53;;;14.19;41.57
52777;BME280;38656;54.260;20.822;2023-02-28T08:21:46;102543.31;;;13.55;42.19
52777;BME280;38656;54.260;20.822;2023-02-28T08:24:12;102535.13;;;14.46;41.89
52777;BME280;38656;54.260;20.822;2023-02-28T08:26:38;102540.94;;;12.72;41.24
52777;BME280;38656;54.260;20.822;2023-02-28T08:29:04;102531.16;;;13.81;40.66
52777;BME280;38656;54.260;20.822;2023-02-28T08:31:31;102543.84;;;12.83;41.77
52777;BME280;38656;54.260;20.822;2023-02-28T08:33:57;102539.56;;;11.29;45.40
52777;BME280;38656;54.260;20.822;2023-02-28T08:36:25;102542.25;;;12.31;43.40
52777;BME280;38656;54.260;20.822;2023-02-28T08:38:51;102536.31;;;12.10;44.38
52777;BME280;38656;54.260;20.822;2023-02-28T08:41:18;102551.50;;;11.19;45.23
52777;BME280;38656;54.260;20.822;2023-02-28T08:43:44;102534.78;;;12.87;44.31
52777;BME280;38656;54.260;20.822;2023-02-28T08:46:14;102532.72;;;14.84;41.57
52777;BME280;38656;54.260;20.822;2023-02-28T08:48:40;102525.97;;;14.23;41.22
52777;BME280;38656;54.260;20.822;2023-02-28T08:51:10;102529.97;;;11.79;45.13
52777;BME280;38656;54.260;20.822;2023-02-28T08:53:38;102526.69;;;14.10;40.08
52777;BME280;38656;54.260;20.822;2023-02-28T08:56:11;102532.94;;;15.21;40.42
52777;BME280;38656;54.260;20.822;2023-02-28T08:58:38;102542.31;;;12.47;42.32
52777;BME280;38656;54.260;20.822;2023-02-28T09:01:11;102542.63;;;12.41;43.68
52777;BME280;38656;54.260;20.822;2023-02-28T09:03:38;102545.13;;;13.54;43.36
52777;BME280;38656;54.260;20.822;2023-02-28T09:06:05;102541.44;;;15.54;40.13
52777;BME280;38656;54.260;20.822;2023-02-28T09:08:31;102547.72;;;11.42;45.11
52777;BME280;38656;54.260;20.822;2023-02-28T09:10:58;102540.66;;;13.99;40.98
52777;BME280;38656;54.260;20.822;2023-02-28T09:13:27;102529.75;;;15.69;39.24
52777;BME280;38656;54.260;20.822;2023-02-28T09:15:54;102540.00;;;13.51;42.19
52777;BME280;38656;54.260;20.822;2023-02-28T09:18:23;102541.97;;;14.36;40.84
52777;BME280;38656;54.260;20.822;2023-02-28T09:20:49;102549.97;;;13.48;43.55
52777;BME280;38656;54.260;20.822;2023-02-28T09:23:16;102546.28;;;16.26;38.60
52777;BME280;38656;54.260;20.822;2023-02-28T09:25:50;102551.47;;;14.68;39.87
52777;BME280;38656;54.260;20.822;2023-02-28T09:28:17;102544.25;;;16.30;36.39
52777;BME280;38656;54.260;20.822;2023-02-28T09:30:49;102553.44;;;13.78;39.70
52777;BME280;38656;54.260;20.822;2023-02-28T09:33:16;102539.84;;;17.98;36.90
52777;BME280;38656;54.260;20.822;2023-02-28T09:35:43;102544.47;;;16.14;36.84
52777;BME280;38656;54.260;20.822;2023-02-28T09:38:10;102535.41;;;19.41;34.17
52777;BME280;38656;54.260;20.822;2023-02-28T09:40:49;102549.22;;;15.17;38.97
52777;BME280;38656;54.260;20.822;2023-02-28T09:43:16;102541.41;;;15.28;39.55
52777;BME280;38656;54.260;20.822;2023-02-28T09:45:52;102541.09;;;17.69;35.26
52777;BME280;38656;54.260;20.822;2023-02-28T09:48:22;102540.81;;;15.63;37.45
52777;BME280;38656;54.260;20.822;2023-02-28T09:50:51;102538.94;;;15.91;36.68
52777;BME280;38656;54.260;20.822;2023-02-28T09:53:22;102543.44;;;16.03;37.59
52777;BME280;38656;54.260;20.822;2023-02-28T09:55:58;102532.00;;;17.72;34.93
52777;BME280;38656;54.260;20.822;2023-02-28T09:58:48;102539.13;;;18.30;34.87
52777;BME280;38656;54.260;20.822;2023-02-28T10:01:39;102537.91;;;20.37;31.68
52777;BME280;38656;54.260;20.822;2023-02-28T10:04:37;102552.97;;;16.44;35.75
52777;BME280;38656;54.260;20.822;2023-02-28T10:07:07;102542.25;;;15.29;36.97
52777;BME280;38656;54.260;20.822;2023-02-28T10:09:46;102530.00;;;18.99;34.17
52777;BME280;38656;54.260;20.822;2023-02-28T10:12:15;102539.13;;;16.26;35.24
52777;BME280;38656;54.260;20.822;2023-02-28T10:14:45;102537.25;;;18.64;32.55
52777;BME280;38656;54.260;20.822;2023-02-28T10:17:38;102527.34;;;16.92;36.42
52777;BME280;38656;54.260;20.822;2023-02-28T10:20:12;102534.81;;;15.47;36.32
52777;BME280;38656;54.260;20.822;2023-02-28T10:22:53;102526.09;;;16.48;36.42
52777;BME280;38656;54.260;20.822;2023-02-28T10:25:25;102530.25;;;15.74;37.11
52777;BME280;38656;54.260;20.822;2023-02-28T10:28:01;102519.19;;;17.53;34.61
52777;BME280;38656;54.260;20.822;2023-02-28T10:30:31;102514.47;;;17.57;34.65
52777;BME280;38656;54.260;20.822;2023-02-28T10:32:57;102507.63;;;19.84;32.10
52777;BME280;38656;54.260;20.822;2023-02-28T10:35:25;102508.69;;;16.79;35.08
52777;BME280;38656;54.260;20.822;2023-02-28T10:37:56;102512.13;;;18.10;33.45
52777;BME280;38656;54.260;20.822;2023-02-28T10:45:22;102522.84;;;19.62;31.51
52777;BME280;38656;54.260;20.822;2023-02-28T10:47:53;102504.78;;;20.57;31.68
52777;BME280;38656;54.260;20.822;2023-02-28T10:53:40;102498.78;;;17.05;34.92
52777;BME280;38656;54.260;20.822;2023-02-28T11:06:43;102483.94;;;17.01;34.15
52777;BME280;38656;54.260;20.822;2023-02-28T11:11:47;102482.50;;;16.60;34.87
52777;BME280;38656;54.260;20.822;2023-02-28T11:14:24;102478.97;;;17.32;33.54
52777;BME280;38656;54.260;20.822;2023-02-28T11:16:52;102469.50;;;19.28;32.67
52777;BME280;38656;54.260;20.822;2023-02-28T11:19:28;102471.91;;;16.71;34.40
52777;BME280;38656;54.260;20.822;2023-02-28T11:22:04;102469.38;;;16.94;33.96
52777;BME280;38656;54.260;20.822;2023-02-28T11:24:43;102466.34;;;17.34;33.15
52777;BME280;38656;54.260;20.822;2023-02-28T11:30:00;102455.44;;;17.60;33.87
52777;BME280;38656;54.260;20.822;2023-02-28T11:32:28;102441.38;;;19.44;30.90
52777;BME280;38656;54.260;20.822;2023-02-28T11:35:22;102443.75;;;17.27;35.10
52777;BME280;38656;54.260;20.822;2023-02-28T11:37:49;102441.00;;;16.80;35.47
52777;BME280;38656;54.260;20.822;2023-02-28T11:40:18;102442.28;;;17.23;34.41
52777;BME280;38656;54.260;20.822;2023-02-28T11:43:09;102423.69;;;17.91;32.87
52777;BME280;38656;54.260;20.822;2023-02-28T11:51:15;102424.22;;;18.28;32.59
52777;BME280;38656;54.260;20.822;2023-02-28T11:54:09;102422.44;;;18.17;30.64
52777;BME280;38656;54.260;20.822;2023-02-28T11:56:50;102414.75;;;16.38;32.85
52777;BME280;38656;54.260;20.822;2023-02-28T12:07:38;102405.56;;;18.06;32.31
52777;BME280;38656;54.260;20.822;2023-02-28T12:15:56;102414.13;;;16.35;33.36
52777;BME280;38656;54.260;20.822;2023-02-28T12:26:59;102407.00;;;18.86;30.50
52777;BME280;38656;54.260;20.822;2023-02-28T12:29:29;102400.38;;;20.93;28.80
52777;BME280;38656;54.260;20.822;2023-02-28T12:40:22;102411.97;;;17.24;32.60
52777;BME280;38656;54.260;20.822;2023-02-28T12:43:04;102404.59;;;17.84;32.93
52777;BME280;38656;54.260;20.822;2023-02-28T12:45:53;102395.69;;;16.56;33.04
52777;BME280;38656;54.260;20.822;2023-02-28T12:48:50;102387.69;;;19.55;31.44
52777;BME280;38656;54.260;20.822;2023-02-28T12:51:19;102384.06;;;17.39;33.19
52777;BME280;38656;54.260;20.822;2023-02-28T12:53:57;102377.22;;;18.14;32.72
52777;BME280;38656;54.260;20.822;2023-02-28T12:59:25;102385.34;;;21.20;29.26
52777;BME280;38656;54.260;20.822;2023-02-28T13:10:21;102367.53;;;18.46;31.02
52777;BME280;38656;54.260;20.822;2023-02-28T13:12:52;102350.63;;;20.21;30.44
52777;BME280;38656;54.260;20.822;2023-02-28T13:15:25;102355.44;;;19.36;31.56
52777;BME280;38656;54.260;20.822;2023-02-28T13:17:58;102347.56;;;19.13;32.68
52777;BME280;38656;54.260;20.822;2023-02-28T13:20:28;102352.78;;;16.94;33.50
52777;BME280;38656;54.260;20.822;2023-02-28T13:22:56;102355.44;;;16.35;34.55
52777;BME280;38656;54.260;20.822;2023-02-28T13:27:55;102339.75;;;19.21;31.92
52777;BME280;38656;54.260;20.822;2023-02-28T13:33:34;102343.47;;;18.67;33.11
52777;BME280;38656;54.260;20.822;2023-02-28T13:44:03;102331.59;;;19.02;30.70
52777;BME280;38656;54.260;20.822;2023-02-28T13:46:30;102341.31;;;17.62;32.97
52777;BME280;38656;54.260;20.822;2023-02-28T13:49:14;102344.34;;;18.77;31.42
52777;BME280;38656;54.260;20.822;2023-02-28T13:51:45;102339.75;;;19.00;32.01
52777;BME280;38656;54.260;20.822;2023-02-28T14:05:19;102356.72;;;18.36;33.19
52777;BME280;38656;54.260;20.822;2023-02-28T14:07:53;102356.34;;;18.40;32.68
52777;BME280;38656;54.260;20.822;2023-02-28T14:10:33;102338.81;;;19.42;32.49
52777;BME280;38656;54.260;20.822;2023-02-28T14:16:01;102341.41;;;19.22;32.22
52777;BME280;38656;54.260;20.822;2023-02-28T14:18:35;102344.34;;;19.81;32.09
52777;BME280;38656;54.260;20.822;2023-02-28T14:21:24;102345.06;;;16.67;34.88
52777;BME280;38656;54.260;20.822;2023-02-28T14:35:43;102319.41;;;19.90;32.80
52777;BME280;38656;54.260;20.822;2023-02-28T14:38:25;102320.94;;;19.83;32.24
52777;BME280;38656;54.260;20.822;2023-02-28T14:40:53;102319.25;;;20.60;32.40
52777;BME280;38656;54.260;20.822;2023-02-28T14:43:29;102326.78;;;19.67;32.42
52777;BME280;38656;54.260;20.822;2023-02-28T14:45:59;102326.31;;;19.83;32.32
52777;BME280;38656;54.260;20.822;2023-02-28T14:48:26;102321.59;;;21.50;30.33
52777;BME280;38656;54.260;20.822;2023-02-28T14:53:30;102324.38;;;20.34;31.62
52777;BME280;38656;54.260;20.822;2023-02-28T14:56:01;102326.09;;;19.65;31.88
52777;BME280;38656;54.260;20.822;2023-02-28T14:58:29;102314.75;;;20.71;31.09
52777;BME280;38656;54.260;20.822;2023-02-28T15:00:58;102334.72;;;19.07;32.71
52777;BME280;38656;54.260;20.822;2023-02-28T15:05:56;102326.47;;;21.27;29.94
52777;BME280;38656;54.260;20.822;2023-02-28T15:08:23;102315.53;;;18.81;32.25
52777;BME280;38656;54.260;20.822;2023-02-28T15:11:01;102306.50;;;19.03;32.52
52777;BME280;38656;54.260;20.822;2023-02-28T15:13:52;102309.84;;;17.65;34.50
52777;BME280;38656;54.260;20.822;2023-02-28T15:16:43;102314.66;;;17.94;34.21
52777;BME280;38656;54.260;20.822;2023-02-28T15:19:17;102312.63;;;18.51;33.49
52777;BME280;38656;54.260;20.822;2023-02-28T15:21:49;102308.03;;;17.55;34.28
52777;BME280;38656;54.260;20.822;2023-02-28T15:24:22;102305.09;;;17.92;34.04
52777;BME280;38656;54.260;20.822;2023-02-28T15:26:57;102287.53;;;18.10;34.14
52777;BME280;38656;54.260;20.822;2023-02-28T15:29:26;102277.34;;;18.04;34.79
52777;BME280;38656;54.260;20.822;2023-02-28T15:32:01;102285.72;;;17.56;34.05
52777;BME280;38656;54.260;20.822;2023-02-28T15:34:37;102279.06;;;17.27;34.42